sensor_id;sensor_type;location;lat;lon;timestamp;pressure;altitude;pressure_sealevel;temperature;humidity
75401;BME280;63974;47.538;18.972;2023-03-15T00:02:35;99051.25;;;10.63;65.64
75401;BME280;63974;47.538;18.972;2023-03-15T00:05:41;99054.00;;;10.48;66.33
75401;BME280;63974;47.538;18.972;2023-03-15T00:08:45;99056.19;;;10.38;66.72
75401;BME280;63974;47.538;18.972;2023-03-15T00:11:53;99054.78;;;10.23;68.40
75401;BME280;63974;47.538;18.972;2023-03-15T00:14:58;99064.31;;;10.09;69.78
75401;BME280;63974;47.538;18.972;2023-03-15T00:18:01;99060.63;;;9.91;70.33
75401;BME280;63974;47.538;18.972;2023-03-15T00:21:07;99063.75;;;9.73;72.30
75401;BME280;63974;47.538;18.972;2023-03-15T00:24:10;99061.09;;;9.60;72.55
75401;BME280;63974;47.538;18.972;2023-03-15T00:27:13;99043.72;;;9.54;73.24
75401;BME280;63974;47.538;18.972;2023-03-15T00:30:16;99069.38;;;9.43;73.80
75401;BME280;63974;47.538;18.972;2023-03-15T00:33:19;99072.31;;;9.33;74.45
75401;BME280;63974;47.538;18.972;2023-03-15T00:36:23;99074.59;;;9.22;75.46
75401;BME280;63974;47.538;18.972;2023-03-15T00:39:27;99084.41;;;9.26;73.32
75401;BME280;63974;47.538;18.972;2023-03-15T00:42:29;99065.25;;;9.21;72.67
75401;BME280;63974;47.538;18.972;2023-03-15T00:45:32;99051.78;;;9.04;72.59
75401;BME280;63974;47.538;18.972;2023-03-15T00:48:35;99056.25;;;8.89;72.48
75401;BME280;63974;47.538;18.972;2023-03-15T00:51:38;99067.38;;;8.83;70.50
75401;BME280;63974;47.538;18.972;2023-03-15T00:54:41;99056.53;;;8.74;69.16
75401;BME280;63974;47.538;18.972;2023-03-15T00:57:45;99048.13;;;8.65;68.92
75401;BME280;63974;47.538;18.972;2023-03-15T01:00:50;99041.13;;;8.66;66.41
75401;BME280;63974;47.538;18.972;2023-03-15T01:03:53;99035.72;;;8.61;65.23
75401;BME280;63974;47.538;18.972;2023-03-15T01:06:59;99036.28;;;8.56;64.55
75401;BME280;63974;47.538;18.972;2023-03-15T01:10:03;99041.69;;;8.61;63.12
75401;BME280;63974;47.538;18.972;2023-03-15T01:13:07;99026.16;;;8.61;61.97
75401;BME280;63974;47.538;18.972;2023-03-15T01:16:11;99022.53;;;8.56;62.67
75401;BME280;63974;47.538;18.972;2023-03-15T01:19:17;99030.78;;;8.45;62.13
75401;BME280;63974;47.538;18.972;2023-03-15T01:22:20;99025.50;;;8.53;61.84
75401;BME280;63974;47.538;18.972;2023-03-15T01:25:23;99026.25;;;8.47;62.07
75401;BME280;63974;47.538;18.972;2023-03-15T01:28:26;99012.50;;;8.46;61.60
75401;BME280;63974;47.538;18.972;2023-03-15T01:31:31;99029.84;;;8.46;61.30
75401;BME280;63974;47.538;18.972;2023-03-15T01:34:34;99030.00;;;8.44;61.03
75401;BME280;63974;47.538;18.972;2023-03-15T01:37:37;99032.34;;;8.39;61.96
75401;BME280;63974;47.538;18.972;2023-03-15T01:40:44;99020.66;;;8.43;61.06
75401;BME280;63974;47.538;18.972;2023-03-15T01:43:48;99017.09;;;8.44;60.49
75401;BME280;63974;47.538;18.972;2023-03-15T01:46:52;99017.03;;;8.38;61.73
75401;BME280;63974;47.538;18.972;2023-03-15T01:50:17;99001.00;;;8.28;61.90
75401;BME280;63974;47.538;18.972;2023-03-15T01:53:24;98997.22;;;8.24;61.46
75401;BME280;63974;47.538;18.972;2023-03-15T01:56:29;99012.28;;;8.20;61.74
75401;BME280;63974;47.538;18.972;2023-03-15T01:59:40;99028.84;;;8.11;61.83
75401;BME280;63974;47.538;18.972;2023-03-15T02:06:25;99033.75;;;8.21;60.98
75401;BME280;63974;47.538;18.972;2023-03-15T02:10:03;99027.97;;;8.19;60.83
75401;BME280;63974;47.538;18.972;2023-03-15T02:13:12;99034.09;;;8.18;61.03
75401;BME280;63974;47.538;18.972;2023-03-15T02:16:16;99009.34;;;8.09;61.64
75401;BME280;63974;47.538;18.972;2023-03-15T02:19:43;99042.31;;;8.07;61.58
75401;BME280;63974;47.538;18.972;2023-03-15T02:23:05;99036.91;;;8.02;62.16
75401;BME280;63974;47.538;18.972;2023-03-15T02:26:29;99032.47;;;7.96;62.62
75401;BME280;63974;47.538;18.972;2023-03-15T02:29:36;99018.47;;;7.90;62.70
75401;BME280;63974;47.538;18.972;2023-03-15T02:32:39;99020.81;;;7.85;63.43
75401;BME280;63974;47.538;18.972;2023-03-15T02:35:42;99002.84;;;7.77;63.96
75401;BME280;63974;47.538;18.972;2023-03-15T02:38:48;99049.53;;;7.76;63.78
75401;BME280;63974;47.538;18.972;2023-03-15T02:41:54;99022.28;;;7.73;63.91
75401;BME280;63974;47.538;18.972;2023-03-15T02:44:58;99016.88;;;7.68;64.32
75401;BME280;63974;47.538;18.972;2023-03-15T02:48:03;99029.34;;;7.65;64.53
75401;BME280;63974;47.538;18.972;2023-03-15T02:51:16;99024.25;;;7.57;64.82
75401;BME280;63974;47.538;18.972;2023-03-15T02:54:18;99026.22;;;7.55;64.71
75401;BME280;63974;47.538;18.972;2023-03-15T02:57:21;99018.56;;;7.61;64.25
75401;BME280;63974;47.538;18.972;2023-03-15T03:00:27;99016.50;;;7.57;64.47
75401;BME280;63974;47.538;18.972;2023-03-15T03:03:32;99018.41;;;7.48;64.98
75401;BME280;63974;47.538;18.972;2023-03-15T03:06:35;99011.88;;;7.52;64.30
75401;BME280;63974;47.538;18.972;2023-03-15T03:09:39;99039.41;;;7.60;64.27
75401;BME280;63974;47.538;18.972;2023-03-15T03:12:44;99035.84;;;7.61;63.86
75401;BME280;63974;47.538;18.972;2023-03-15T03:15:49;99044.75;;;7.58;64.68
75401;BME280;63974;47.538;18.972;2023-03-15T03:19:03;99052.97;;;7.62;63.41
75401;BME280;63974;47.538;18.972;2023-03-15T03:22:07;99035.84;;;7.61;63.67
75401;BME280;63974;47.538;18.972;2023-03-15T03:25:12;99023.72;;;7.61;63.39
75401;BME280;63974;47.538;18.972;2023-03-15T03:28:14;99027.38;;;7.67;63.30
75401;BME280;63974;47.538;18.972;2023-03-15T03:31:23;99032.09;;;7.63;63.26
75401;BME280;63974;47.538;18.972;2023-03-15T03:34:27;99039.66;;;7.65;63.47
75401;BME280;63974;47.538;18.972;2023-03-15T03:37:31;99044.75;;;7.58;64.19
75401;BME280;63974;47.538;18.972;2023-03-15T03:40:44;99033.63;;;7.58;64.30
75401;BME280;63974;47.538;18.972;2023-03-15T03:43:47;99049.09;;;7.58;64.06
75401;BME280;63974;47.538;18.972;2023-03-15T03:46:50;99045.22;;;7.62;64.37
75401;BME280;63974;47.538;18.972;2023-03-15T03:49:53;99038.16;;;7.56;64.32
75401;BME280;63974;47.538;18.972;2023-03-15T03:52:56;99027.03;;;7.55;64.56
75401;BME280;63974;47.538;18.972;2023-03-15T03:56:05;99041.09;;;7.53;64.22
75401;BME280;63974;47.538;18.972;2023-03-15T03:59:09;99051.06;;;7.56;64.54
75401;BME280;63974;47.538;18.972;2023-03-15T04:02:29;99044.16;;;7.56;63.90
75401;BME280;63974;47.538;18.972;2023-03-15T04:05:36;99036.94;;;7.52;64.24
75401;BME280;63974;47.538;18.972;2023-03-15T04:08:39;99047.25;;;7.52;64.21
75401;BME280;63974;47.538;18.972;2023-03-15T04:11:46;99046.44;;;7.51;64.49
75401;BME280;63974;47.538;18.972;2023-03-15T04:14:51;99038.06;;;7.49;64.41
75401;BME280;63974;47.538;18.972;2023-03-15T04:17:55;99046.00;;;7.48;64.72
75401;BME280;63974;47.538;18.972;2023-03-15T04:21:01;99041.91;;;7.53;63.94
75401;BME280;63974;47.538;18.972;2023-03-15T04:24:04;99039.22;;;7.47;64.96
75401;BME280;63974;47.538;18.972;2023-03-15T04:27:28;99031.06;;;7.43;65.53
75401;BME280;63974;47.538;18.972;2023-03-15T04:31:00;99048.97;;;7.30;67.92
75401;BME280;63974;47.538;18.972;2023-03-15T04:34:12;99069.75;;;7.14;69.20
75401;BME280;63974;47.538;18.972;2023-03-15T04:37:31;99072.69;;;6.97;71.01
75401;BME280;63974;47.538;18.972;2023-03-15T04:40:58;99074.88;;;6.85;72.21
75401;BME280;63974;47.538;18.972;2023-03-15T04:44:21;99094.50;;;6.72;74.15
75401;BME280;63974;47.538;18.972;2023-03-15T04:47:49;99075.09;;;6.61;74.89
75401;BME280;63974;47.538;18.972;2023-03-15T04:51:21;99085.41;;;6.61;74.61
75401;BME280;63974;47.538;18.972;2023-03-15T04:54:33;99088.44;;;6.65;74.19
75401;BME280;63974;47.538;18.972;2023-03-15T04:57:45;99092.63;;;6.66;74.75
75401;BME280;63974;47.538;18.972;2023-03-15T05:01:04;99081.94;;;6.69;74.73
75401;BME280;63974;47.538;18.972;2023-03-15T05:04:26;99107.00;;;6.60;74.62
75401;BME280;63974;47.538;18.972;2023-03-15T05:08:07;99124.47;;;6.73;73.74
75401;BME280;63974;47.538;18.972;2023-03-15T05:11:22;99115.13;;;6.72;74.33
75401;BME280;63974;47.538;18.972;2023-03-15T05:15:03;99119.56;;;6.63;75.46
75401;BME280;63974;47.538;18.972;2023-03-15T05:18:25;99131.69;;;6.55;75.72
75401;BME280;63974;47.538;18.972;2023-03-15T05:22:03;99134.78;;;6.51;77.72
75401;BME280;63974;47.538;18.972;2023-03-15T05:25:24;99141.56;;;6.52;77.21
75401;BME280;63974;47.538;18.972;2023-03-15T05:28:59;99147.41;;;6.46;77.02
75401;BME280;63974;47.538;18.972;2023-03-15T05:32:34;99149.44;;;6.50;76.21
75401;BME280;63974;47.538;18.972;2023-03-15T05:35:54;99137.66;;;6.55;76.63
75401;BME280;63974;47.538;18.972;2023-03-15T05:39:04;99130.84;;;6.62;75.12
75401;BME280;63974;47.538;18.972;2023-03-15T05:42:42;99136.00;;;6.62;75.40
75401;BME280;63974;47.538;18.972;2023-03-15T05:46:04;99157.63;;;6.61;74.88
75401;BME280;63974;47.538;18.972;2023-03-15T05:49:23;99159.22;;;6.62;75.20
75401;BME280;63974;47.538;18.972;2023-03-15T05:52:52;99143.22;;;6.67;72.55
75401;BME280;63974;47.538;18.972;2023-03-15T05:56:05;99150.47;;;6.71;70.62
75401;BME280;63974;47.538;18.972;2023-03-15T05:59:41;99157.13;;;6.80;67.86
75401;BME280;63974;47.538;18.972;2023-03-15T06:02:46;99158.13;;;6.79;66.59
75401;BME280;63974;47.538;18.972;2023-03-15T06:06:25;99144.00;;;6.67;66.67
75401;BME280;63974;47.538;18.972;2023-03-15T06:09:28;99145.31;;;6.71;64.20
75401;BME280;63974;47.538;18.972;2023-03-15T06:12:31;99161.56;;;6.72;64.11
75401;BME280;63974;47.538;18.972;2023-03-15T06:15:34;99171.59;;;6.67;63.32
75401;BME280;63974;47.538;18.972;2023-03-15T06:18:38;99165.81;;;6.65;64.03
75401;BME280;63974;47.538;18.972;2023-03-15T06:21:42;99156.91;;;6.67;62.14
75401;BME280;63974;47.538;18.972;2023-03-15T06:24:52;99152.97;;;6.79;59.48
75401;BME280;63974;47.538;18.972;2023-03-15T06:27:57;99184.09;;;6.78;60.64
75401;BME280;63974;47.538;18.972;2023-03-15T06:31:08;99160.25;;;6.76;59.78
75401;BME280;63974;47.538;18.972;2023-03-15T06:34:20;99158.59;;;6.83;58.89
75401;BME280;63974;47.538;18.972;2023-03-15T06:37:24;99169.38;;;6.86;58.71
75401;BME280;63974;47.538;18.972;2023-03-15T06:40:40;99171.00;;;6.79;58.65
75401;BME280;63974;47.538;18.972;2023-03-15T06:43:43;99180.34;;;6.80;58.11
75401;BME280;63974;47.538;18.972;2023-03-15T06:46:47;99186.69;;;6.78;58.72
75401;BME280;63974;47.538;18.972;2023-03-15T06:49:52;99176.19;;;6.79;56.57
75401;BME280;63974;47.538;18.972;2023-03-15T06:52:56;99192.16;;;6.75;56.64
75401;BME280;63974;47.538;18.972;2023-03-15T06:56:02;99196.41;;;6.68;56.62
75401;BME280;63974;47.538;18.972;2023-03-15T06:59:05;99199.03;;;6.60;56.14
75401;BME280;63974;47.538;18.972;2023-03-15T07:02:16;99206.78;;;6.60;56.40
75401;BME280;63974;47.538;18.972;2023-03-15T07:05:19;99209.06;;;6.55;57.69
75401;BME280;63974;47.538;18.972;2023-03-15T07:08:24;99229.34;;;6.58;56.70
75401;BME280;63974;47.538;18.972;2023-03-15T07:11:27;99233.97;;;6.70;56.16
75401;BME280;63974;47.538;18.972;2023-03-15T07:14:29;99220.88;;;6.72;55.64
75401;BME280;63974;47.538;18.972;2023-03-15T07:17:32;99221.00;;;6.78;55.39
75401;BME280;63974;47.538;18.972;2023-03-15T07:20:36;99228.25;;;6.83;54.52
75401;BME280;63974;47.538;18.972;2023-03-15T07:23:39;99223.91;;;6.83;53.61
75401;BME280;63974;47.538;18.972;2023-03-15T07:26:42;99217.16;;;6.74;54.15
75401;BME280;63974;47.538;18.972;2023-03-15T07:29:45;99219.28;;;6.71;52.48
75401;BME280;63974;47.538;18.972;2023-03-15T07:32:48;99222.50;;;6.73;51.75
75401;BME280;63974;47.538;18.972;2023-03-15T07:35:52;99242.00;;;6.75;51.17
75401;BME280;63974;47.538;18.972;2023-03-15T07:38:55;99226.34;;;6.77;51.21
75401;BME280;63974;47.538;18.972;2023-03-15T07:41:58;99226.16;;;6.78;53.11
75401;BME280;63974;47.538;18.972;2023-03-15T07:45:08;99215.56;;;6.73;53.43
75401;BME280;63974;47.538;18.972;2023-03-15T07:48:11;99220.16;;;6.86;53.55
75401;BME280;63974;47.538;18.972;2023-03-15T07:51:15;99213.50;;;6.91;53.28
75401;BME280;63974;47.538;18.972;2023-03-15T07:54:18;99207.91;;;6.88;50.84
75401;BME280;63974;47.538;18.972;2023-03-15T07:57:21;99220.56;;;6.97;52.57
75401;BME280;63974;47.538;18.972;2023-03-15T08:00:24;99229.56;;;7.01;52.27
75401;BME280;63974;47.538;18.972;2023-03-15T08:03:27;99226.34;;;7.22;51.44
75401;BME280;63974;47.538;18.972;2023-03-15T08:06:30;99222.25;;;7.13;51.94
75401;BME280;63974;47.538;18.972;2023-03-15T08:09:33;99239.66;;;7.11;50.40
75401;BME280;63974;47.538;18.972;2023-03-15T08:12:36;99239.13;;;7.15;49.11
75401;BME280;63974;47.538;18.972;2023-03-15T08:15:44;99226.41;;;7.36;49.03
75401;BME280;63974;47.538;18.972;2023-03-15T08:18:48;99234.34;;;7.49;50.22
75401;BME280;63974;47.538;18.972;2023-03-15T08:21:51;99232.34;;;7.59;49.73
75401;BME280;63974;47.538;18.972;2023-03-15T08:24:55;99233.31;;;7.58;49.65
75401;BME280;63974;47.538;18.972;2023-03-15T08:27:59;99236.78;;;7.51;48.61
75401;BME280;63974;47.538;18.972;2023-03-15T08:31:07;99236.97;;;7.64;48.06
75401;BME280;63974;47.538;18.972;2023-03-15T08:34:10;99226.13;;;7.68;48.73
75401;BME280;63974;47.538;18.972;2023-03-15T08:37:13;99222.25;;;7.64;48.91
75401;BME280;63974;47.538;18.972;2023-03-15T08:40:19;99233.56;;;7.63;49.14
75401;BME280;63974;47.538;18.972;2023-03-15T08:43:28;99233.88;;;7.83;49.77
75401;BME280;63974;47.538;18.972;2023-03-15T08:46:31;99239.75;;;7.77;50.61
75401;BME280;63974;47.538;18.972;2023-03-15T08:49:34;99243.59;;;7.66;50.22
75401;BME280;63974;47.538;18.972;2023-03-15T08:52:38;99259.56;;;7.47;49.14
75401;BME280;63974;47.538;18.972;2023-03-15T08:55:40;99260.91;;;7.58;50.93
75401;BME280;63974;47.538;18.972;2023-03-15T08:58:44;99280.25;;;7.25;51.10
75401;BME280;63974;47.538;18.972;2023-03-15T09:01:47;99263.06;;;7.09;51.75
75401;BME280;63974;47.538;18.972;2023-03-15T09:04:50;99274.69;;;7.05;52.33
75401;BME280;63974;47.538;18.972;2023-03-15T09:07:54;99256.22;;;6.94;53.39
75401;BME280;63974;47.538;18.972;2023-03-15T09:10:58;99279.56;;;7.00;53.38
75401;BME280;63974;47.538;18.972;2023-03-15T09:14:01;99276.22;;;7.00;53.17
75401;BME280;63974;47.538;18.972;2023-03-15T09:17:04;99270.06;;;7.01;52.80
75401;BME280;63974;47.538;18.972;2023-03-15T09:20:09;99271.41;;;7.19;52.20
75401;BME280;63974;47.538;18.972;2023-03-15T09:23:16;99276.84;;;7.02;54.23
75401;BME280;63974;47.538;18.972;2023-03-15T09:26:19;99300.78;;;7.18;54.06
75401;BME280;63974;47.538;18.972;2023-03-15T09:29:21;99293.19;;;7.17;54.18
75401;BME280;63974;47.538;18.972;2023-03-15T09:32:24;99285.06;;;7.28;54.06
75401;BME280;63974;47.538;18.972;2023-03-15T09:35:27;99298.47;;;7.23;52.71
75401;BME280;63974;47.538;18.972;2023-03-15T09:38:31;99307.19;;;7.22;52.84
75401;BME280;63974;47.538;18.972;2023-03-15T09:41:52;99306.59;;;7.35;53.76
75401;BME280;63974;47.538;18.972;2023-03-15T09:48:55;99325.25;;;7.45;53.15
75401;BME280;63974;47.538;18.972;2023-03-15T09:55:35;99314.59;;;7.48;52.56
75401;BME280;63974;47.538;18.972;2023-03-15T09:58:38;99327.34;;;7.49;52.65
75401;BME280;63974;47.538;18.972;2023-03-15T10:01:42;99322.09;;;7.35;53.27
75401;BME280;63974;47.538;18.972;2023-03-15T10:04:46;99303.13;;;7.28;52.94
75401;BME280;63974;47.538;18.972;2023-03-15T10:07:50;99319.53;;;7.04;51.61
75401;BME280;63974;47.538;18.972;2023-03-15T10:20:48;99330.06;;;7.03;52.02
75401;BME280;63974;47.538;18.972;2023-03-15T10:23:53;99338.22;;;7.14;50.98
75401;BME280;63974;47.538;18.972;2023-03-15T10:26:58;99335.56;;;7.30;51.17
75401;BME280;63974;47.538;18.972;2023-03-15T10:30:33;99360.16;;;7.18;51.03
75401;BME280;63974;47.538;18.972;2023-03-15T10:33:37;99353.41;;;7.09;50.20
75401;BME280;63974;47.538;18.972;2023-03-15T10:36:46;99370.84;;;7.07;50.22
75401;BME280;63974;47.538;18.972;2023-03-15T10:39:55;99353.34;;;7.17;50.64
75401;BME280;63974;47.538;18.972;2023-03-15T10:42:59;99369.94;;;7.23;51.21
75401;BME280;63974;47.538;18.972;2023-03-15T10:46:09;99390.84;;;7.05;50.39
75401;BME280;63974;47.538;18.972;2023-03-15T10:49:14;99368.94;;;7.01;49.51
75401;BME280;63974;47.538;18.972;2023-03-15T10:52:36;99369.78;;;6.94;50.34
75401;BME280;63974;47.538;18.972;2023-03-15T10:55:43;99365.56;;;7.01;50.79
75401;BME280;63974;47.538;18.972;2023-03-15T10:58:47;99362.44;;;7.05;50.21
75401;BME280;63974;47.538;18.972;2023-03-15T11:05:15;99365.22;;;7.04;50.78
75401;BME280;63974;47.538;18.972;2023-03-15T11:08:39;99378.75;;;7.06;48.63
75401;BME280;63974;47.538;18.972;2023-03-15T11:15:11;99362.06;;;7.16;48.62
75401;BME280;63974;47.538;18.972;2023-03-15T11:18:17;99378.50;;;7.23;49.54
75401;BME280;63974;47.538;18.972;2023-03-15T11:21:28;99401.72;;;7.23;49.04
75401;BME280;63974;47.538;18.972;2023-03-15T11:24:35;99398.06;;;7.18;48.78
75401;BME280;63974;47.538;18.972;2023-03-15T11:27:38;99375.88;;;7.01;48.77
75401;BME280;63974;47.538;18.972;2023-03-15T11:30:46;99411.78;;;7.18;48.70
75401;BME280;63974;47.538;18.972;2023-03-15T11:34:07;99406.56;;;6.88;49.19
75401;BME280;63974;47.538;18.972;2023-03-15T11:37:18;99451.00;;;7.06;49.19
75401;BME280;63974;47.538;18.972;2023-03-15T11:40:29;99396.53;;;7.01;50.17
75401;BME280;63974;47.538;18.972;2023-03-15T11:47:09;99434.53;;;7.15;49.86
75401;BME280;63974;47.538;18.972;2023-03-15T11:50:17;99439.59;;;7.00;49.71
75401;BME280;63974;47.538;18.972;2023-03-15T11:53:24;99432.69;;;6.93;49.51
75401;BME280;63974;47.538;18.972;2023-03-15T11:56:51;99440.41;;;7.01;49.78
75401;BME280;63974;47.538;18.972;2023-03-15T11:59:56;99443.50;;;6.80;49.54
75401;BME280;63974;47.538;18.972;2023-03-15T12:03:24;99445.59;;;6.85;51.08
75401;BME280;63974;47.538;18.972;2023-03-15T12:06:37;99444.75;;;6.92;50.59
75401;BME280;63974;47.538;18.972;2023-03-15T12:09:51;99450.47;;;6.72;51.43
75401;BME280;63974;47.538;18.972;2023-03-15T12:12:59;99453.84;;;6.72;51.43
75401;BME280;63974;47.538;18.972;2023-03-15T12:16:10;99407.72;;;6.77;51.43
75401;BME280;63974;47.538;18.972;2023-03-15T12:19:19;99462.03;;;6.92;50.71
75401;BME280;63974;47.538;18.972;2023-03-15T12:22:30;99465.22;;;7.02;50.54
75401;BME280;63974;47.538;18.972;2023-03-15T12:25:36;99482.47;;;7.09;50.91
75401;BME280;63974;47.538;18.972;2023-03-15T12:32:26;99452.69;;;6.91;50.02
75401;BME280;63974;47.538;18.972;2023-03-15T12:35:40;99477.16;;;7.03;49.57
75401;BME280;63974;47.538;18.972;2023-03-15T12:39:00;99471.44;;;7.23;50.01
75401;BME280;63974;47.538;18.972;2023-03-15T12:42:03;99480.03;;;7.08;49.32
75401;BME280;63974;47.538;18.972;2023-03-15T12:48:19;99501.66;;;7.15;48.76
75401;BME280;63974;47.538;18.972;2023-03-15T12:51:44;99493.63;;;7.02;48.70
75401;BME280;63974;47.538;18.972;2023-03-15T12:55:15;99492.50;;;6.96;48.49
75401;BME280;63974;47.538;18.972;2023-03-15T12:58:25;99499.28;;;6.97;47.52
75401;BME280;63974;47.538;18.972;2023-03-15T13:01:29;99488.00;;;6.90;47.30
75401;BME280;63974;47.538;18.972;2023-03-15T13:04:33;99491.69;;;6.96;48.85
75401;BME280;63974;47.538;18.972;2023-03-15T13:07:57;99505.41;;;6.96;47.15
75401;BME280;63974;47.538;18.972;2023-03-15T13:21:23;99528.78;;;7.03;43.96
75401;BME280;63974;47.538;18.972;2023-03-15T13:27:58;99545.41;;;6.92;43.67
75401;BME280;63974;47.538;18.972;2023-03-15T13:31:11;99536.72;;;6.85;43.40
75401;BME280;63974;47.538;18.972;2023-03-15T13:34:23;99555.25;;;6.89;43.59
75401;BME280;63974;47.538;18.972;2023-03-15T13:37:27;99561.53;;;6.94;44.15
75401;BME280;63974;47.538;18.972;2023-03-15T13:40:34;99560.72;;;7.02;43.92
75401;BME280;63974;47.538;18.972;2023-03-15T13:43:38;99580.72;;;6.92;44.24
75401;BME280;63974;47.538;18.972;2023-03-15T13:46:41;99604.59;;;6.94;42.09
75401;BME280;63974;47.538;18.972;2023-03-15T13:49:43;99588.94;;;7.03;43.06
75401;BME280;63974;47.538;18.972;2023-03-15T13:52:47;99590.38;;;7.14;42.16
75401;BME280;63974;47.538;18.972;2023-03-15T13:55:52;99587.31;;;7.10;42.23
75401;BME280;63974;47.538;18.972;2023-03-15T13:58:56;99594.72;;;7.13;41.63
75401;BME280;63974;47.538;18.972;2023-03-15T14:02:00;99588.78;;;7.13;40.73
75401;BME280;63974;47.538;18.972;2023-03-15T14:05:10;99596.19;;;7.24;41.59
75401;BME280;63974;47.538;18.972;2023-03-15T14:14:28;99600.53;;;7.23;41.51
75401;BME280;63974;47.538;18.972;2023-03-15T14:17:32;99599.75;;;7.15;40.51
75401;BME280;63974;47.538;18.972;2023-03-15T14:20:41;99615.72;;;7.02;40.06
75401;BME280;63974;47.538;18.972;2023-03-15T14:23:47;99612.66;;;7.07;40.89
75401;BME280;63974;47.538;18.972;2023-03-15T14:26:53;99599.25;;;7.03;40.68
75401;BME280;63974;47.538;18.972;2023-03-15T14:29:58;99612.19;;;6.95;40.34
75401;BME280;63974;47.538;18.972;2023-03-15T14:33:04;99608.47;;;7.06;40.14
75401;BME280;63974;47.538;18.972;2023-03-15T14:36:46;99610.56;;;7.10;40.13
75401;BME280;63974;47.538;18.972;2023-03-15T14:39:49;99615.38;;;7.13;40.92
75401;BME280;63974;47.538;18.972;2023-03-15T14:42:52;99627.66;;;7.03;41.10
75401;BME280;63974;47.538;18.972;2023-03-15T14:50:14;99626.53;;;7.14;39.17
75401;BME280;63974;47.538;18.972;2023-03-15T14:53:20;99625.72;;;7.21;38.47
75401;BME280;63974;47.538;18.972;2023-03-15T14:56:24;99632.97;;;7.18;38.12
75401;BME280;63974;47.538;18.972;2023-03-15T14:59:27;99680.56;;;7.15;39.11
75401;BME280;63974;47.538;18.972;2023-03-15T15:02:31;99641.34;;;7.28;38.43
75401;BME280;63974;47.538;18.972;2023-03-15T15:05:34;99636.50;;;7.33;38.57
75401;BME280;63974;47.538;18.972;2023-03-15T15:08:39;99638.44;;;7.31;38.27
75401;BME280;63974;47.538;18.972;2023-03-15T15:11:43;99635.56;;;7.26;38.69
75401;BME280;63974;47.538;18.972;2023-03-15T15:14:46;99660.06;;;7.22;38.58
75401;BME280;63974;47.538;18.972;2023-03-15T15:17:49;99651.69;;;7.20;38.46
75401;BME280;63974;47.538;18.972;2023-03-15T15:20:54;99643.78;;;7.21;38.69
75401;BME280;63974;47.538;18.972;2023-03-15T15:23:58;99668.63;;;7.14;39.15
75401;BME280;63974;47.538;18.972;2023-03-15T15:27:03;99659.75;;;7.17;39.78
75401;BME280;63974;47.538;18.972;2023-03-15T15:30:13;99670.25;;;7.07;39.42
75401;BME280;63974;47.538;18.972;2023-03-15T15:33:18;99670.25;;;7.07;39.36
75401;BME280;63974;47.538;18.972;2023-03-15T15:36:25;99693.13;;;7.02;40.57
75401;BME280;63974;47.538;18.972;2023-03-15T15:39:29;99676.69;;;7.03;39.33
75401;BME280;63974;47.538;18.972;2023-03-15T15:42:32;99691.22;;;6.96;39.69
75401;BME280;63974;47.538;18.972;2023-03-15T15:45:35;99712.34;;;7.00;40.58
75401;BME280;63974;47.538;18.972;2023-03-15T15:48:38;99697.66;;;7.00;42.75
75401;BME280;63974;47.538;18.972;2023-03-15T15:51:44;99695.75;;;6.94;43.74
75401;BME280;63974;47.538;18.972;2023-03-15T15:54:47;99701.66;;;6.87;44.91
75401;BME280;63974;47.538;18.972;2023-03-15T15:57:51;99722.50;;;6.85;44.11
75401;BME280;63974;47.538;18.972;2023-03-15T16:00:57;99697.66;;;6.84;44.12
75401;BME280;63974;47.538;18.972;2023-03-15T16:04:01;99719.56;;;6.80;44.45
75401;BME280;63974;47.538;18.972;2023-03-15T16:07:08;99731.16;;;6.76;44.29
75401;BME280;63974;47.538;18.972;2023-03-15T16:10:21;99742.13;;;6.70;45.29
75401;BME280;63974;47.538;18.972;2023-03-15T16:13:25;99733.91;;;6.75;43.85
75401;BME280;63974;47.538;18.972;2023-03-15T16:16:28;99737.94;;;6.69;44.16
75401;BME280;63974;47.538;18.972;2023-03-15T16:19:31;99743.09;;;6.69;44.07
75401;BME280;63974;47.538;18.972;2023-03-15T16:22:36;99754.19;;;6.62;42.90
75401;BME280;63974;47.538;18.972;2023-03-15T16:25:39;99756.47;;;6.65;41.28
75401;BME280;63974;47.538;18.972;2023-03-15T16:28:43;99762.28;;;6.67;40.74
75401;BME280;63974;47.538;18.972;2023-03-15T16:31:49;99777.41;;;6.62;40.69
75401;BME280;63974;47.538;18.972;2023-03-15T16:34:53;99778.34;;;6.61;39.89
75401;BME280;63974;47.538;18.972;2023-03-15T16:37:56;99776.75;;;6.60;40.17
75401;BME280;63974;47.538;18.972;2023-03-15T16:41:00;99780.59;;;6.56;40.03
75401;BME280;63974;47.538;18.972;2023-03-15T16:44:12;99789.81;;;6.58;39.22
75401;BME280;63974;47.538;18.972;2023-03-15T16:47:16;99786.56;;;6.56;39.45
75401;BME280;63974;47.538;18.972;2023-03-15T16:50:20;99807.06;;;6.58;38.77
75401;BME280;63974;47.538;18.972;2023-03-15T16:53:23;99806.25;;;6.57;39.28
75401;BME280;63974;47.538;18.972;2023-03-15T16:56:28;99817.50;;;6.49;39.67
75401;BME280;63974;47.538;18.972;2023-03-15T16:59:34;99822.66;;;6.49;39.41
75401;BME280;63974;47.538;18.972;2023-03-15T17:02:37;99848.94;;;6.52;39.15
75401;BME280;63974;47.538;18.972;2023-03-15T17:05:44;99842.19;;;6.51;38.74
75401;BME280;63974;47.538;18.972;2023-03-15T17:08:48;99846.38;;;6.52;38.93
75401;BME280;63974;47.538;18.972;2023-03-15T17:11:52;99843.44;;;6.47;38.86
75401;BME280;63974;47.538;18.972;2023-03-15T17:14:56;99852.94;;;6.47;39.22
75401;BME280;63974;47.538;18.972;2023-03-15T17:18:00;99853.75;;;6.47;38.18
75401;BME280;63974;47.538;18.972;2023-03-15T17:21:12;99857.13;;;6.48;38.70
75401;BME280;63974;47.538;18.972;2023-03-15T17:24:16;99867.28;;;6.49;37.45
75401;BME280;63974;47.538;18.972;2023-03-15T17:27:31;99864.56;;;6.51;37.43
75401;BME280;63974;47.538;18.972;2023-03-15T17:30:38;99881.59;;;6.44;38.54
75401;BME280;63974;47.538;18.972;2023-03-15T17:33:43;99869.06;;;6.49;37.92
75401;BME280;63974;47.538;18.972;2023-03-15T17:36:46;99873.84;;;6.44;38.35
75401;BME280;63974;47.538;18.972;2023-03-15T17:39:49;99874.34;;;6.39;39.05